sensor_id;sensor_type;location;lat;lon;timestamp;temperature;humidity
23405;DHT22;11875;49.356;2.718;2022-07-29T00:02:13;20.30;82.80
23405;DHT22;11875;49.356;2.718;2022-07-29T00:04:39;20.20;83.10
23405;DHT22;11875;49.356;2.718;2022-07-29T00:07:04;20.30;82.90
23405;DHT22;11875;49.356;2.718;2022-07-29T00:09:31;20.30;82.90
23405;DHT22;11875;49.356;2.718;2022-07-29T00:11:59;20.30;82.80
23405;DHT22;11875;49.356;2.718;2022-07-29T00:14:26;20.30;83.10
23405;DHT22;11875;49.356;2.718;2022-07-29T00:16:52;20.30;83.20
23405;DHT22;11875;49.356;2.718;2022-07-29T00:19:18;20.10;82.90
23405;DHT22;11875;49.356;2.718;2022-07-29T00:21:44;20.00;83.10
23405;DHT22;11875;49.356;2.718;2022-07-29T00:24:09;19.90;83.50
23405;DHT22;11875;49.356;2.718;2022-07-29T00:26:35;19.90;83.90
23405;DHT22;11875;49.356;2.718;2022-07-29T00:29:02;19.80;83.90
23405;DHT22;11875;49.356;2.718;2022-07-29T00:31:28;19.90;84.00
23405;DHT22;11875;49.356;2.718;2022-07-29T00:33:54;19.90;83.60
23405;DHT22;11875;49.356;2.718;2022-07-29T00:36:20;19.90;83.70
23405;DHT22;11875;49.356;2.718;2022-07-29T00:38:49;19.90;84.20
23405;DHT22;11875;49.356;2.718;2022-07-29T00:41:16;19.80;84.20
23405;DHT22;11875;49.356;2.718;2022-07-29T00:43:42;19.80;84.00
23405;DHT22;11875;49.356;2.718;2022-07-29T00:46:08;19.80;84.00
23405;DHT22;11875;49.356;2.718;2022-07-29T00:48:34;19.70;84.90
23405;DHT22;11875;49.356;2.718;2022-07-29T00:51:01;19.60;84.40
23405;DHT22;11875;49.356;2.718;2022-07-29T00:53:29;19.50;84.50
23405;DHT22;11875;49.356;2.718;2022-07-29T00:55:55;19.50;84.80
23405;DHT22;11875;49.356;2.718;2022-07-29T00:58:22;19.50;85.00
23405;DHT22;11875;49.356;2.718;2022-07-29T01:00:48;19.50;85.80
23405;DHT22;11875;49.356;2.718;2022-07-29T01:03:13;19.40;85.20
23405;DHT22;11875;49.356;2.718;2022-07-29T01:05:41;19.30;85.40
23405;DHT22;11875;49.356;2.718;2022-07-29T01:08:08;19.30;85.90
23405;DHT22;11875;49.356;2.718;2022-07-29T01:10:38;19.40;86.00
23405;DHT22;11875;49.356;2.718;2022-07-29T01:13:05;19.30;86.10
23405;DHT22;11875;49.356;2.718;2022-07-29T01:15:33;19.30;86.10
23405;DHT22;11875;49.356;2.718;2022-07-29T01:18:09;19.20;86.00
23405;DHT22;11875;49.356;2.718;2022-07-29T01:29:05;19.10;86.30
23405;DHT22;11875;49.356;2.718;2022-07-29T01:31:48;19.10;86.40
23405;DHT22;11875;49.356;2.718;2022-07-29T01:34:48;19.00;86.40
23405;DHT22;11875;49.356;2.718;2022-07-29T01:37:24;18.90;86.50
23405;DHT22;11875;49.356;2.718;2022-07-29T01:39:54;18.80;86.90
23405;DHT22;11875;49.356;2.718;2022-07-29T01:42:30;18.70;87.10
23405;DHT22;11875;49.356;2.718;2022-07-29T01:47:52;18.80;87.30
23405;DHT22;11875;49.356;2.718;2022-07-29T01:50:20;18.80;87.20
23405;DHT22;11875;49.356;2.718;2022-07-29T01:52:58;18.80;87.30
23405;DHT22;11875;49.356;2.718;2022-07-29T01:55:31;18.80;87.30
23405;DHT22;11875;49.356;2.718;2022-07-29T01:57:58;18.70;87.20
23405;DHT22;11875;49.356;2.718;2022-07-29T02:00:25;18.70;87.40
23405;DHT22;11875;49.356;2.718;2022-07-29T02:02:53;18.60;87.50
23405;DHT22;11875;49.356;2.718;2022-07-29T02:05:21;18.70;87.70
23405;DHT22;11875;49.356;2.718;2022-07-29T02:07:49;18.60;87.60
23405;DHT22;11875;49.356;2.718;2022-07-29T02:10:17;18.70;87.70
23405;DHT22;11875;49.356;2.718;2022-07-29T02:12:44;18.60;87.50
23405;DHT22;11875;49.356;2.718;2022-07-29T02:15:11;18.50;87.70
23405;DHT22;11875;49.356;2.718;2022-07-29T02:17:53;18.50;87.60
23405;DHT22;11875;49.356;2.718;2022-07-29T02:20:22;18.50;87.50
23405;DHT22;11875;49.356;2.718;2022-07-29T02:22:49;18.40;87.80
23405;DHT22;11875;49.356;2.718;2022-07-29T02:25:17;18.10;88.30
23405;DHT22;11875;49.356;2.718;2022-07-29T02:27:43;17.80;88.90
23405;DHT22;11875;49.356;2.718;2022-07-29T02:30:10;17.60;89.40
23405;DHT22;11875;49.356;2.718;2022-07-29T02:32:39;17.60;89.40
23405;DHT22;11875;49.356;2.718;2022-07-29T02:35:07;17.90;89.20
23405;DHT22;11875;49.356;2.718;2022-07-29T02:37:33;18.10;89.10
23405;DHT22;11875;49.356;2.718;2022-07-29T02:40:01;18.20;88.80
23405;DHT22;11875;49.356;2.718;2022-07-29T02:42:28;18.10;88.70
23405;DHT22;11875;49.356;2.718;2022-07-29T02:44:54;18.20;88.60
23405;DHT22;11875;49.356;2.718;2022-07-29T02:47:39;18.20;88.30
23405;DHT22;11875;49.356;2.718;2022-07-29T02:50:14;18.20;88.30
23405;DHT22;11875;49.356;2.718;2022-07-29T02:52:44;18.20;88.40
23405;DHT22;11875;49.356;2.718;2022-07-29T02:55:29;18.20;88.40
23405;DHT22;11875;49.356;2.718;2022-07-29T02:58:08;18.30;88.00
23405;DHT22;11875;49.356;2.718;2022-07-29T03:00:37;18.30;87.70
23405;DHT22;11875;49.356;2.718;2022-07-29T03:03:10;18.30;87.60
23405;DHT22;11875;49.356;2.718;2022-07-29T03:05:37;18.30;87.60
23405;DHT22;11875;49.356;2.718;2022-07-29T03:08:04;18.10;87.70
23405;DHT22;11875;49.356;2.718;2022-07-29T03:10:31;18.10;88.10
23405;DHT22;11875;49.356;2.718;2022-07-29T03:12:57;18.10;88.10
23405;DHT22;11875;49.356;2.718;2022-07-29T03:15:24;18.10;88.10
23405;DHT22;11875;49.356;2.718;2022-07-29T03:17:51;18.10;87.80
23405;DHT22;11875;49.356;2.718;2022-07-29T03:20:17;18.10;88.10
23405;DHT22;11875;49.356;2.718;2022-07-29T03:22:44;18.20;88.30
23405;DHT22;11875;49.356;2.718;2022-07-29T03:25:13;18.10;88.20
23405;DHT22;11875;49.356;2.718;2022-07-29T03:27:40;18.10;88.20
23405;DHT22;11875;49.356;2.718;2022-07-29T03:30:08;18.20;88.30
23405;DHT22;11875;49.356;2.718;2022-07-29T03:32:35;18.10;88.20
23405;DHT22;11875;49.356;2.718;2022-07-29T03:35:02;18.20;88.30
23405;DHT22;11875;49.356;2.718;2022-07-29T03:37:28;18.10;88.10
23405;DHT22;11875;49.356;2.718;2022-07-29T03:39:57;18.00;88.00
23405;DHT22;11875;49.356;2.718;2022-07-29T03:42:25;18.00;88.60
23405;DHT22;11875;49.356;2.718;2022-07-29T03:44:52;18.00;88.30
23405;DHT22;11875;49.356;2.718;2022-07-29T03:47:23;18.10;88.10
23405;DHT22;11875;49.356;2.718;2022-07-29T03:49:52;18.10;87.90
23405;DHT22;11875;49.356;2.718;2022-07-29T03:52:20;18.20;87.90
23405;DHT22;11875;49.356;2.718;2022-07-29T03:54:46;18.30;87.90
23405;DHT22;11875;49.356;2.718;2022-07-29T03:57:13;18.30;87.90
23405;DHT22;11875;49.356;2.718;2022-07-29T03:59:40;18.20;87.90
23405;DHT22;11875;49.356;2.718;2022-07-29T04:02:09;18.20;88.40
23405;DHT22;11875;49.356;2.718;2022-07-29T04:04:36;18.20;88.90
23405;DHT22;11875;49.356;2.718;2022-07-29T04:07:02;18.10;89.20
23405;DHT22;11875;49.356;2.718;2022-07-29T04:09:28;18.10;88.80
23405;DHT22;11875;49.356;2.718;2022-07-29T04:11:54;18.10;88.60
23405;DHT22;11875;49.356;2.718;2022-07-29T04:14:20;18.10;88.70
23405;DHT22;11875;49.356;2.718;2022-07-29T04:16:46;18.00;88.60
23405;DHT22;11875;49.356;2.718;2022-07-29T04:19:12;18.00;88.70
23405;DHT22;11875;49.356;2.718;2022-07-29T04:21:39;18.00;88.90
23405;DHT22;11875;49.356;2.718;2022-07-29T04:24:04;18.00;89.20
23405;DHT22;11875;49.356;2.718;2022-07-29T04:26:30;18.00;89.40
23405;DHT22;11875;49.356;2.718;2022-07-29T04:28:56;17.90;89.00
23405;DHT22;11875;49.356;2.718;2022-07-29T04:31:21;17.90;89.40
23405;DHT22;11875;49.356;2.718;2022-07-29T04:33:47;17.70;89.50
23405;DHT22;11875;49.356;2.718;2022-07-29T04:36:12;17.70;89.90
23405;DHT22;11875;49.356;2.718;2022-07-29T04:38:38;17.70;90.10
23405;DHT22;11875;49.356;2.718;2022-07-29T04:41:04;17.60;90.00
23405;DHT22;11875;49.356;2.718;2022-07-29T04:43:32;17.60;90.00
23405;DHT22;11875;49.356;2.718;2022-07-29T04:45:58;17.50;90.20
23405;DHT22;11875;49.356;2.718;2022-07-29T04:48:24;17.50;90.30
23405;DHT22;11875;49.356;2.718;2022-07-29T04:50:49;17.50;90.40
23405;DHT22;11875;49.356;2.718;2022-07-29T04:53:15;17.50;90.60
23405;DHT22;11875;49.356;2.718;2022-07-29T04:55:40;17.50;90.50
23405;DHT22;11875;49.356;2.718;2022-07-29T04:58:06;17.60;90.70
23405;DHT22;11875;49.356;2.718;2022-07-29T05:00:32;17.60;90.80
23405;DHT22;11875;49.356;2.718;2022-07-29T05:02:59;17.70;90.70
23405;DHT22;11875;49.356;2.718;2022-07-29T05:05:24;17.80;90.70
23405;DHT22;11875;49.356;2.718;2022-07-29T05:07:50;17.80;90.60
23405;DHT22;11875;49.356;2.718;2022-07-29T05:10:15;17.70;90.70
23405;DHT22;11875;49.356;2.718;2022-07-29T05:12:41;17.70;90.80
23405;DHT22;11875;49.356;2.718;2022-07-29T05:15:07;17.80;90.90
23405;DHT22;11875;49.356;2.718;2022-07-29T05:17:33;17.70;91.00
23405;DHT22;11875;49.356;2.718;2022-07-29T05:19:59;17.70;91.00
23405;DHT22;11875;49.356;2.718;2022-07-29T05:22:24;17.80;91.10
23405;DHT22;11875;49.356;2.718;2022-07-29T05:24:50;17.80;90.90
23405;DHT22;11875;49.356;2.718;2022-07-29T05:27:16;17.90;90.90
23405;DHT22;11875;49.356;2.718;2022-07-29T05:29:41;17.80;90.90
23405;DHT22;11875;49.356;2.718;2022-07-29T05:32:07;17.90;90.90
23405;DHT22;11875;49.356;2.718;2022-07-29T05:34:33;17.90;91.30
23405;DHT22;11875;49.356;2.718;2022-07-29T05:36:59;18.00;91.20
23405;DHT22;11875;49.356;2.718;2022-07-29T05:39:24;18.10;91.20
23405;DHT22;11875;49.356;2.718;2022-07-29T05:41:50;18.00;91.20
23405;DHT22;11875;49.356;2.718;2022-07-29T05:44:15;18.10;91.20
23405;DHT22;11875;49.356;2.718;2022-07-29T05:46:41;18.10;91.50
23405;DHT22;11875;49.356;2.718;2022-07-29T05:49:07;18.00;91.10
23405;DHT22;11875;49.356;2.718;2022-07-29T05:51:33;18.10;91.20
23405;DHT22;11875;49.356;2.718;2022-07-29T05:53:59;18.10;91.70
23405;DHT22;11875;49.356;2.718;2022-07-29T05:56:25;17.90;91.80
23405;DHT22;11875;49.356;2.718;2022-07-29T05:58:51;17.80;92.10
23405;DHT22;11875;49.356;2.718;2022-07-29T06:01:17;17.90;92.40
23405;DHT22;11875;49.356;2.718;2022-07-29T06:03:43;18.00;92.10
23405;DHT22;11875;49.356;2.718;2022-07-29T06:06:09;18.10;92.30
23405;DHT22;11875;49.356;2.718;2022-07-29T06:08:35;18.10;92.20
23405;DHT22;11875;49.356;2.718;2022-07-29T06:11:03;18.20;92.30
23405;DHT22;11875;49.356;2.718;2022-07-29T06:13:29;18.40;92.30
23405;DHT22;11875;49.356;2.718;2022-07-29T06:15:55;18.50;92.20
23405;DHT22;11875;49.356;2.718;2022-07-29T06:18:20;18.60;92.20
23405;DHT22;11875;49.356;2.718;2022-07-29T06:20:49;18.80;91.80
23405;DHT22;11875;49.356;2.718;2022-07-29T06:23:15;18.80;91.60
23405;DHT22;11875;49.356;2.718;2022-07-29T06:25:40;18.80;91.50
23405;DHT22;11875;49.356;2.718;2022-07-29T06:28:06;18.90;91.20
23405;DHT22;11875;49.356;2.718;2022-07-29T06:30:32;18.80;91.30
23405;DHT22;11875;49.356;2.718;2022-07-29T06:32:58;18.90;91.70
23405;DHT22;11875;49.356;2.718;2022-07-29T06:35:23;18.80;92.40
23405;DHT22;11875;49.356;2.718;2022-07-29T06:37:49;18.80;92.50
23405;DHT22;11875;49.356;2.718;2022-07-29T06:40:15;18.90;92.40
23405;DHT22;11875;49.356;2.718;2022-07-29T06:42:59;19.00;92.30
23405;DHT22;11875;49.356;2.718;2022-07-29T06:45:24;19.10;92.50
23405;DHT22;11875;49.356;2.718;2022-07-29T06:47:50;19.20;92.20
23405;DHT22;11875;49.356;2.718;2022-07-29T06:50:16;19.10;92.20
23405;DHT22;11875;49.356;2.718;2022-07-29T06:52:41;19.20;92.50
23405;DHT22;11875;49.356;2.718;2022-07-29T06:55:07;19.20;92.70
23405;DHT22;11875;49.356;2.718;2022-07-29T06:57:33;19.30;92.80
23405;DHT22;11875;49.356;2.718;2022-07-29T06:59:59;19.30;92.70
23405;DHT22;11875;49.356;2.718;2022-07-29T07:02:25;19.40;92.60
23405;DHT22;11875;49.356;2.718;2022-07-29T07:04:51;19.50;92.50
23405;DHT22;11875;49.356;2.718;2022-07-29T07:07:16;19.50;92.50
23405;DHT22;11875;49.356;2.718;2022-07-29T07:09:43;19.60;92.20
23405;DHT22;11875;49.356;2.718;2022-07-29T07:12:08;19.70;92.30
23405;DHT22;11875;49.356;2.718;2022-07-29T07:14:34;19.80;92.20
23405;DHT22;11875;49.356;2.718;2022-07-29T07:17:01;20.10;92.70
23405;DHT22;11875;49.356;2.718;2022-07-29T07:19:29;20.60;92.00
23405;DHT22;11875;49.356;2.718;2022-07-29T07:21:54;21.40;91.20
23405;DHT22;11875;49.356;2.718;2022-07-29T07:24:20;22.10;90.40
23405;DHT22;11875;49.356;2.718;2022-07-29T07:26:46;22.60;88.70
23405;DHT22;11875;49.356;2.718;2022-07-29T07:29:12;23.00;88.10
23405;DHT22;11875;49.356;2.718;2022-07-29T07:31:38;23.30;87.90
23405;DHT22;11875;49.356;2.718;2022-07-29T07:34:04;23.60;87.30
23405;DHT22;11875;49.356;2.718;2022-07-29T07:36:30;23.60;87.70
23405;DHT22;11875;49.356;2.718;2022-07-29T07:38:55;23.80;86.50
23405;DHT22;11875;49.356;2.718;2022-07-29T07:41:22;23.90;86.30
23405;DHT22;11875;49.356;2.718;2022-07-29T07:43:48;24.10;85.70
23405;DHT22;11875;49.356;2.718;2022-07-29T07:46:14;24.10;86.80
23405;DHT22;11875;49.356;2.718;2022-07-29T07:48:40;24.10;87.80
23405;DHT22;11875;49.356;2.718;2022-07-29T07:51:06;24.20;87.70
23405;DHT22;11875;49.356;2.718;2022-07-29T07:53:33;24.30;86.30
23405;DHT22;11875;49.356;2.718;2022-07-29T07:55:59;24.50;85.40
23405;DHT22;11875;49.356;2.718;2022-07-29T07:58:24;24.70;84.40
23405;DHT22;11875;49.356;2.718;2022-07-29T08:00:50;24.80;84.60
23405;DHT22;11875;49.356;2.718;2022-07-29T08:03:16;25.00;83.40
23405;DHT22;11875;49.356;2.718;2022-07-29T08:05:41;25.20;83.40
23405;DHT22;11875;49.356;2.718;2022-07-29T08:08:07;25.30;82.30
23405;DHT22;11875;49.356;2.718;2022-07-29T08:10:33;25.60;83.50
23405;DHT22;11875;49.356;2.718;2022-07-29T08:13:21;25.70;81.40
23405;DHT22;11875;49.356;2.718;2022-07-29T08:15:47;25.80;80.70
23405;DHT22;11875;49.356;2.718;2022-07-29T08:18:13;25.90;79.90
23405;DHT22;11875;49.356;2.718;2022-07-29T08:20:39;26.00;79.80
23405;DHT22;11875;49.356;2.718;2022-07-29T08:23:07;26.10;79.70
23405;DHT22;11875;49.356;2.718;2022-07-29T08:25:35;26.10;79.80
23405;DHT22;11875;49.356;2.718;2022-07-29T08:28:01;26.10;81.40
23405;DHT22;11875;49.356;2.718;2022-07-29T08:30:28;26.20;82.20
23405;DHT22;11875;49.356;2.718;2022-07-29T08:32:53;26.30;81.60
23405;DHT22;11875;49.356;2.718;2022-07-29T08:35:20;26.50;80.70
23405;DHT22;11875;49.356;2.718;2022-07-29T08:37:46;26.60;80.60
23405;DHT22;11875;49.356;2.718;2022-07-29T08:40:12;26.70;80.30
23405;DHT22;11875;49.356;2.718;2022-07-29T08:42:39;27.00;78.70
23405;DHT22;11875;49.356;2.718;2022-07-29T08:45:05;27.10;77.30
23405;DHT22;11875;49.356;2.718;2022-07-29T08:47:31;27.30;76.80
23405;DHT22;11875;49.356;2.718;2022-07-29T08:49:58;27.50;76.40
23405;DHT22;11875;49.356;2.718;2022-07-29T08:52:27;27.40;74.90
23405;DHT22;11875;49.356;2.718;2022-07-29T08:54:54;27.40;74.00
23405;DHT22;11875;49.356;2.718;2022-07-29T08:57:21;27.50;73.70
23405;DHT22;11875;49.356;2.718;2022-07-29T08:59:47;27.50;72.40
23405;DHT22;11875;49.356;2.718;2022-07-29T09:02:27;27.50;72.70
23405;DHT22;11875;49.356;2.718;2022-07-29T09:04:53;27.60;73.20
23405;DHT22;11875;49.356;2.718;2022-07-29T09:07:19;27.60;73.20
23405;DHT22;11875;49.356;2.718;2022-07-29T09:09:45;27.80;72.30
23405;DHT22;11875;49.356;2.718;2022-07-29T09:12:12;28.00;71.60
23405;DHT22;11875;49.356;2.718;2022-07-29T09:14:41;28.10;70.70
23405;DHT22;11875;49.356;2.718;2022-07-29T09:17:07;28.10;70.90
23405;DHT22;11875;49.356;2.718;2022-07-29T09:19:35;28.20;70.40
23405;DHT22;11875;49.356;2.718;2022-07-29T09:22:04;28.20;70.50
23405;DHT22;11875;49.356;2.718;2022-07-29T09:24:44;28.10;70.40
23405;DHT22;11875;49.356;2.718;2022-07-29T09:27:24;28.20;67.60
23405;DHT22;11875;49.356;2.718;2022-07-29T09:30:06;28.20;66.30
23405;DHT22;11875;49.356;2.718;2022-07-29T09:32:54;28.30;65.40
23405;DHT22;11875;49.356;2.718;2022-07-29T09:35:23;28.40;65.00
23405;DHT22;11875;49.356;2.718;2022-07-29T09:37:49;28.30;65.30
23405;DHT22;11875;49.356;2.718;2022-07-29T09:40:28;28.40;65.20
23405;DHT22;11875;49.356;2.718;2022-07-29T09:42:54;28.40;64.90
23405;DHT22;11875;49.356;2.718;2022-07-29T09:45:33;28.40;65.80
23405;DHT22;11875;49.356;2.718;2022-07-29T09:48:00;28.50;66.20
23405;DHT22;11875;49.356;2.718;2022-07-29T09:50:43;28.60;65.30
23405;DHT22;11875;49.356;2.718;2022-07-29T09:53:10;28.70;65.00
23405;DHT22;11875;49.356;2.718;2022-07-29T09:55:50;28.80;65.00
23405;DHT22;11875;49.356;2.718;2022-07-29T09:58:21;28.80;64.70
23405;DHT22;11875;49.356;2.718;2022-07-29T10:00:48;28.90;64.80
23405;DHT22;11875;49.356;2.718;2022-07-29T10:03:16;28.80;64.50
23405;DHT22;11875;49.356;2.718;2022-07-29T10:05:43;28.90;66.10
23405;DHT22;11875;49.356;2.718;2022-07-29T10:08:09;29.10;64.00
23405;DHT22;11875;49.356;2.718;2022-07-29T10:10:41;29.00;63.30
23405;DHT22;11875;49.356;2.718;2022-07-29T10:13:14;29.10;64.00
23405;DHT22;11875;49.356;2.718;2022-07-29T10:15:44;29.20;64.20
23405;DHT22;11875;49.356;2.718;2022-07-29T10:18:12;29.20;64.90
23405;DHT22;11875;49.356;2.718;2022-07-29T10:20:38;29.10;63.70
23405;DHT22;11875;49.356;2.718;2022-07-29T10:23:04;29.20;64.20
23405;DHT22;11875;49.356;2.718;2022-07-29T10:25:30;29.20;64.20
23405;DHT22;11875;49.356;2.718;2022-07-29T10:27:56;29.20;64.20
23405;DHT22;11875;49.356;2.718;2022-07-29T10:30:24;29.30;64.00
23405;DHT22;11875;49.356;2.718;2022-07-29T10:44:18;29.60;63.10
23405;DHT22;11875;49.356;2.718;2022-07-29T10:46:45;29.60;62.50
23405;DHT22;11875;49.356;2.718;2022-07-29T10:49:21;29.60;63.30
23405;DHT22;11875;49.356;2.718;2022-07-29T10:57:20;29.60;62.50
23405;DHT22;11875;49.356;2.718;2022-07-29T11:00:35;29.70;62.90
23405;DHT22;11875;49.356;2.718;2022-07-29T11:05:22;29.70;63.40
23405;DHT22;11875;49.356;2.718;2022-07-29T11:10:42;29.80;63.40
23405;DHT22;11875;49.356;2.718;2022-07-29T11:13:07;29.70;62.80
23405;DHT22;11875;49.356;2.718;2022-07-29T11:15:55;29.70;63.10
23405;DHT22;11875;49.356;2.718;2022-07-29T11:18:21;29.80;63.10
23405;DHT22;11875;49.356;2.718;2022-07-29T11:20:49;29.80;63.50
23405;DHT22;11875;49.356;2.718;2022-07-29T11:23:32;29.90;63.50
23405;DHT22;11875;49.356;2.718;2022-07-29T11:26:17;29.90;63.00
23405;DHT22;11875;49.356;2.718;2022-07-29T11:31:32;30.00;62.30
23405;DHT22;11875;49.356;2.718;2022-07-29T11:34:28;30.00;62.40
23405;DHT22;11875;49.356;2.718;2022-07-29T11:47:54;30.10;61.90
23405;DHT22;11875;49.356;2.718;2022-07-29T11:50:34;30.20;62.10
23405;DHT22;11875;49.356;2.718;2022-07-29T11:53:11;30.30;61.00
23405;DHT22;11875;49.356;2.718;2022-07-29T11:55:38;30.50;61.60
23405;DHT22;11875;49.356;2.718;2022-07-29T11:58:04;30.50;61.50
23405;DHT22;11875;49.356;2.718;2022-07-29T12:00:39;30.40;61.20
23405;DHT22;11875;49.356;2.718;2022-07-29T12:03:08;30.50;60.30
23405;DHT22;11875;49.356;2.718;2022-07-29T12:05:44;30.50;60.10
23405;DHT22;11875;49.356;2.718;2022-07-29T12:08:43;30.60;60.70
23405;DHT22;11875;49.356;2.718;2022-07-29T12:11:02;30.80;59.50
23405;DHT22;11875;49.356;2.718;2022-07-29T12:13:38;31.10;60.00
23405;DHT22;11875;49.356;2.718;2022-07-29T12:16:04;31.10;59.30
23405;DHT22;11875;49.356;2.718;2022-07-29T12:18:31;31.00;58.80
23405;DHT22;11875;49.356;2.718;2022-07-29T12:21:01;30.80;59.20
23405;DHT22;11875;49.356;2.718;2022-07-29T12:23:31;30.90;59.20
23405;DHT22;11875;49.356;2.718;2022-07-29T12:25:57;30.90;59.40
23405;DHT22;11875;49.356;2.718;2022-07-29T12:28:23;30.90;59.60
23405;DHT22;11875;49.356;2.718;2022-07-29T12:30:49;30.90;59.60
23405;DHT22;11875;49.356;2.718;2022-07-29T12:33:24;31.00;59.80
23405;DHT22;11875;49.356;2.718;2022-07-29T12:35:52;31.00;58.80
23405;DHT22;11875;49.356;2.718;2022-07-29T12:38:19;31.10;59.30
23405;DHT22;11875;49.356;2.718;2022-07-29T12:40:46;31.20;59.10
23405;DHT22;11875;49.356;2.718;2022-07-29T12:43:17;31.20;59.00
23405;DHT22;11875;49.356;2.718;2022-07-29T12:45:49;31.20;58.70
23405;DHT22;11875;49.356;2.718;2022-07-29T12:48:16;31.30;58.70
23405;DHT22;11875;49.356;2.718;2022-07-29T12:50:57;31.20;59.20
23405;DHT22;11875;49.356;2.718;2022-07-29T12:53:23;31.30;58.90
23405;DHT22;11875;49.356;2.718;2022-07-29T12:55:51;31.30;58.40
23405;DHT22;11875;49.356;2.718;2022-07-29T13:01:19;31.30;59.20
23405;DHT22;11875;49.356;2.718;2022-07-29T13:09:15;31.70;58.70
23405;DHT22;11875;49.356;2.718;2022-07-29T13:14:11;31.70;58.30
23405;DHT22;11875;49.356;2.718;2022-07-29T13:16:59;31.80;58.20
23405;DHT22;11875;49.356;2.718;2022-07-29T13:19:36;31.70;58.40
23405;DHT22;11875;49.356;2.718;2022-07-29T13:22:03;31.80;58.20
23405;DHT22;11875;49.356;2.718;2022-07-29T13:24:31;31.80;59.20
23405;DHT22;11875;49.356;2.718;2022-07-29T13:26:56;31.90;59.50
23405;DHT22;11875;49.356;2.718;2022-07-29T13:29:22;31.90;59.00
23405;DHT22;11875;49.356;2.718;2022-07-29T13:31:48;31.90;58.60
23405;DHT22;11875;49.356;2.718;2022-07-29T13:34:14;31.80;59.10
23405;DHT22;11875;49.356;2.718;2022-07-29T13:36:39;31.70;58.70
23405;DHT22;11875;49.356;2.718;2022-07-29T13:39:05;31.80;59.00
23405;DHT22;11875;49.356;2.718;2022-07-29T13:41:30;31.90;58.10
23405;DHT22;11875;49.356;2.718;2022-07-29T13:43:56;31.90;58.00
23405;DHT22;11875;49.356;2.718;2022-07-29T13:46:22;31.80;57.80
23405;DHT22;11875;49.356;2.718;2022-07-29T13:48:47;31.80;57.90
23405;DHT22;11875;49.356;2.718;2022-07-29T13:51:13;31.80;58.10
23405;DHT22;11875;49.356;2.718;2022-07-29T13:53:38;31.80;58.10
23405;DHT22;11875;49.356;2.718;2022-07-29T13:56:04;31.80;58.70
23405;DHT22;11875;49.356;2.718;2022-07-29T13:58:33;31.70;58.50
23405;DHT22;11875;49.356;2.718;2022-07-29T14:00:59;31.60;58.70
23405;DHT22;11875;49.356;2.718;2022-07-29T14:03:25;31.80;58.20
23405;DHT22;11875;49.356;2.718;2022-07-29T14:05:51;31.90;58.10
23405;DHT22;11875;49.356;2.718;2022-07-29T14:08:16;31.80;58.40
23405;DHT22;11875;49.356;2.718;2022-07-29T14:10:42;31.70;58.60
23405;DHT22;11875;49.356;2.718;2022-07-29T14:13:08;31.60;59.00
23405;DHT22;11875;49.356;2.718;2022-07-29T14:15:34;31.50;58.40
23405;DHT22;11875;49.356;2.718;2022-07-29T14:18:00;31.30;58.30
23405;DHT22;11875;49.356;2.718;2022-07-29T14:20:26;31.30;58.60
23405;DHT22;11875;49.356;2.718;2022-07-29T14:22:55;31.30;59.20
23405;DHT22;11875;49.356;2.718;2022-07-29T14:25:20;31.30;58.90
23405;DHT22;11875;49.356;2.718;2022-07-29T14:27:46;31.40;58.80
23405;DHT22;11875;49.356;2.718;2022-07-29T14:30:12;31.50;59.10
23405;DHT22;11875;49.356;2.718;2022-07-29T14:32:38;31.50;59.40
23405;DHT22;11875;49.356;2.718;2022-07-29T14:35:05;31.40;60.50
23405;DHT22;11875;49.356;2.718;2022-07-29T14:37:32;31.40;59.30
23405;DHT22;11875;49.356;2.718;2022-07-29T14:39:57;31.40;59.30
23405;DHT22;11875;49.356;2.718;2022-07-29T14:42:27;31.50;59.70
23405;DHT22;11875;49.356;2.718;2022-07-29T14:44:52;31.60;59.20
23405;DHT22;11875;49.356;2.718;2022-07-29T14:47:18;31.60;59.40
23405;DHT22;11875;49.356;2.718;2022-07-29T14:49:44;31.60;59.40
23405;DHT22;11875;49.356;2.718;2022-07-29T14:52:10;31.70;59.50
23405;DHT22;11875;49.356;2.718;2022-07-29T14:54:36;31.80;58.50
23405;DHT22;11875;49.356;2.718;2022-07-29T14:57:01;31.80;59.00
23405;DHT22;11875;49.356;2.718;2022-07-29T14:59:27;31.70;59.50
23405;DHT22;11875;49.356;2.718;2022-07-29T15:01:52;31.60;59.40
23405;DHT22;11875;49.356;2.718;2022-07-29T15:04:18;31.50;59.40
23405;DHT22;11875;49.356;2.718;2022-07-29T15:06:44;31.40;59.20
23405;DHT22;11875;49.356;2.718;2022-07-29T15:09:10;31.50;59.40
23405;DHT22;11875;49.356;2.718;2022-07-29T15:11:35;31.70;59.50
23405;DHT22;11875;49.356;2.718;2022-07-29T15:14:01;31.90;59.50
23405;DHT22;11875;49.356;2.718;2022-07-29T15:16:27;32.00;58.50
23405;DHT22;11875;49.356;2.718;2022-07-29T15:18:52;31.80;58.80
23405;DHT22;11875;49.356;2.718;2022-07-29T15:21:18;31.70;59.20
23405;DHT22;11875;49.356;2.718;2022-07-29T15:23:44;31.60;59.10
23405;DHT22;11875;49.356;2.718;2022-07-29T15:26:09;31.60;59.40
23405;DHT22;11875;49.356;2.718;2022-07-29T15:28:35;31.70;59.70
23405;DHT22;11875;49.356;2.718;2022-07-29T15:31:01;31.60;59.40
23405;DHT22;11875;49.356;2.718;2022-07-29T15:33:26;31.60;59.60
23405;DHT22;11875;49.356;2.718;2022-07-29T15:35:52;31.70;59.60
23405;DHT22;11875;49.356;2.718;2022-07-29T15:38:17;31.80;59.00
23405;DHT22;11875;49.356;2.718;2022-07-29T15:40:43;31.80;59.00
23405;DHT22;11875;49.356;2.718;2022-07-29T15:43:10;31.70;59.20
23405;DHT22;11875;49.356;2.718;2022-07-29T15:45:41;31.70;59.20
23405;DHT22;11875;49.356;2.718;2022-07-29T15:48:28;31.70;59.30
23405;DHT22;11875;49.356;2.718;2022-07-29T15:50:53;31.60;58.90
23405;DHT22;11875;49.356;2.718;2022-07-29T15:53:19;31.60;60.60
23405;DHT22;11875;49.356;2.718;2022-07-29T15:55:45;31.40;59.70
23405;DHT22;11875;49.356;2.718;2022-07-29T15:58:11;31.50;59.60
23405;DHT22;11875;49.356;2.718;2022-07-29T16:00:36;31.60;59.70
23405;DHT22;11875;49.356;2.718;2022-07-29T16:03:02;31.80;59.50
23405;DHT22;11875;49.356;2.718;2022-07-29T16:05:27;31.90;59.60
23405;DHT22;11875;49.356;2.718;2022-07-29T16:07:54;31.90;59.60
23405;DHT22;11875;49.356;2.718;2022-07-29T16:10:20;32.00;59.30
23405;DHT22;11875;49.356;2.718;2022-07-29T16:12:45;32.00;59.60
23405;DHT22;11875;49.356;2.718;2022-07-29T16:15:11;32.00;58.90
23405;DHT22;11875;49.356;2.718;2022-07-29T16:17:37;32.10;59.30
23405;DHT22;11875;49.356;2.718;2022-07-29T16:20:04;32.00;59.00
23405;DHT22;11875;49.356;2.718;2022-07-29T16:22:30;31.90;59.10
23405;DHT22;11875;49.356;2.718;2022-07-29T16:24:56;31.80;60.10
23405;DHT22;11875;49.356;2.718;2022-07-29T16:27:21;31.70;59.60
23405;DHT22;11875;49.356;2.718;2022-07-29T16:29:53;31.40;59.60
23405;DHT22;11875;49.356;2.718;2022-07-29T16:32:19;31.30;60.00
23405;DHT22;11875;49.356;2.718;2022-07-29T16:34:44;31.10;60.10